Terminal Aerodrome Forecast
Issued by NWS Charleston, WV

Current Version | Previous Version | Text Only | Print | Product List | Glossary Off
Versions: 1 2 3 4 5 6 7 8 9 10 11 12 13 14 15 16 17 18 19 20 21 22 23

000
FTUS41 KRLX 190902 AAA
TAFEKN
TAF AMD
KEKN 190902Z 1909/2006 00000KT P6SM SKC
     FM191000 00000KT 5SM BR SCT001
     FM191200 VRB02KT 6SM BR SCT002
     FM191400 25005KT P6SM SKC=

USA.gov is the U.S. government's official web portal to all federal, state and local government web resources and services.